sensor_id;sensor_type;location;lat;lon;timestamp;pressure;altitude;pressure_sealevel;temperature;humidity
6853;BME280;3465;42.144;24.722;2023-06-10T00:00:00;147971.00;;;20.19;100.00
6853;BME280;3465;42.144;24.722;2023-06-10T00:02:26;147959.66;;;20.15;100.00
6853;BME280;3465;42.144;24.722;2023-06-10T00:04:52;147976.06;;;20.21;100.00
6853;BME280;3465;42.144;24.722;2023-06-10T00:07:18;147972.28;;;20.20;100.00
6853;BME280;3465;42.144;24.722;2023-06-10T00:09:43;147953.25;;;20.12;100.00
6853;BME280;3465;42.144;24.722;2023-06-10T00:12:09;147939.41;;;20.07;100.00
6853;BME280;3465;42.144;24.722;2023-06-10T00:14:38;147924.25;;;20.01;100.00
6853;BME280;3465;42.144;24.722;2023-06-10T00:17:05;147878.81;;;19.82;100.00
6853;BME280;3465;42.144;24.722;2023-06-10T00:19:38;147862.41;;;19.76;100.00
6853;BME280;3465;42.144;24.722;2023-06-10T00:22:07;147851.06;;;19.71;100.00
6853;BME280;3465;42.144;24.722;2023-06-10T00:24:32;147833.38;;;19.64;100.00
6853;BME280;3465;42.144;24.722;2023-06-10T00:26:58;147835.88;;;19.65;100.00
6853;BME280;3465;42.144;24.722;2023-06-10T00:29:23;147813.19;;;19.56;100.00
6853;BME280;3465;42.144;24.722;2023-06-10T00:31:48;147835.88;;;19.65;100.00
6853;BME280;3465;42.144;24.722;2023-06-10T00:34:14;147827.09;;;19.62;100.00
6853;BME280;3465;42.144;24.722;2023-06-10T00:36:39;147840.94;;;19.67;100.00
6853;BME280;3465;42.144;24.722;2023-06-10T00:39:05;147843.50;;;19.68;100.00
6853;BME280;3465;42.144;24.722;2023-06-10T00:41:30;147849.78;;;19.71;100.00
6853;BME280;3465;42.144;24.722;2023-06-10T00:43:56;147810.69;;;19.55;100.00
6853;BME280;3465;42.144;24.722;2023-06-10T00:46:23;147834.66;;;19.65;100.00
6853;BME280;3465;42.144;24.722;2023-06-10T00:48:50;147801.84;;;19.52;100.00
6853;BME280;3465;42.144;24.722;2023-06-10T00:51:16;147780.38;;;19.43;100.00
6853;BME280;3465;42.144;24.722;2023-06-10T00:53:43;147785.44;;;19.45;100.00
6853;BME280;3465;42.144;24.722;2023-06-10T00:56:09;147755.13;;;19.33;100.00
6853;BME280;3465;42.144;24.722;2023-06-10T00:58:35;147785.44;;;19.45;100.00
6853;BME280;3465;42.144;24.722;2023-06-10T01:01:02;147772.81;;;19.40;100.00
6853;BME280;3465;42.144;24.722;2023-06-10T01:03:29;147772.81;;;19.40;100.00
6853;BME280;3465;42.144;24.722;2023-06-10T01:06:03;147786.72;;;19.46;100.00
6853;BME280;3465;42.144;24.722;2023-06-10T01:08:42;147714.72;;;19.17;100.00
6853;BME280;3465;42.144;24.722;2023-06-10T01:11:18;147650.38;;;18.92;100.00
6853;BME280;3465;42.144;24.722;2023-06-10T01:13:46;147718.53;;;19.19;100.00
6853;BME280;3465;42.144;24.722;2023-06-10T01:16:17;147707.16;;;19.14;100.00
6853;BME280;3465;42.144;24.722;2023-06-10T01:18:42;147733.66;;;19.25;100.00
6853;BME280;3465;42.144;24.722;2023-06-10T01:21:08;147726.09;;;19.22;100.00
6853;BME280;3465;42.144;24.722;2023-06-10T01:23:34;147718.53;;;19.19;100.00
6853;BME280;3465;42.144;24.722;2023-06-10T01:26:03;147703.38;;;19.13;100.00
6853;BME280;3465;42.144;24.722;2023-06-10T01:28:42;147703.38;;;19.13;100.00
6853;BME280;3465;42.144;24.722;2023-06-10T01:31:23;147685.75;;;19.06;100.00
6853;BME280;3465;42.144;24.722;2023-06-10T01:33:59;147674.34;;;19.01;100.00
6853;BME280;3465;42.144;24.722;2023-06-10T01:36:26;147676.91;;;19.02;100.00
6853;BME280;3465;42.144;24.722;2023-06-10T01:38:53;147674.34;;;19.01;100.00
6853;BME280;3465;42.144;24.722;2023-06-10T01:41:19;147678.19;;;19.03;100.00
6853;BME280;3465;42.144;24.722;2023-06-10T01:43:47;147678.19;;;19.03;100.00
6853;BME280;3465;42.144;24.722;2023-06-10T01:46:13;147652.94;;;18.93;100.00
6853;BME280;3465;42.144;24.722;2023-06-10T01:48:39;147675.63;;;19.02;100.00
6853;BME280;3465;42.144;24.722;2023-06-10T01:51:05;147674.34;;;19.01;100.00
6853;BME280;3465;42.144;24.722;2023-06-10T01:53:30;147640.31;;;18.88;100.00
6853;BME280;3465;42.144;24.722;2023-06-10T01:55:56;147655.44;;;18.94;100.00
6853;BME280;3465;42.144;24.722;2023-06-10T01:58:21;147679.41;;;19.03;100.00
6853;BME280;3465;42.144;24.722;2023-06-10T02:00:47;147675.63;;;19.02;100.00
6853;BME280;3465;42.144;24.722;2023-06-10T02:03:12;147644.09;;;18.89;100.00
6853;BME280;3465;42.144;24.722;2023-06-10T02:05:38;147618.88;;;18.79;100.00
6853;BME280;3465;42.144;24.722;2023-06-10T02:08:04;147649.16;;;18.91;100.00
6853;BME280;3465;42.144;24.722;2023-06-10T02:10:29;147627.72;;;18.83;100.00
6853;BME280;3465;42.144;24.722;2023-06-10T02:12:55;147625.22;;;18.82;100.00
6853;BME280;3465;42.144;24.722;2023-06-10T02:15:20;147588.63;;;18.67;100.00
6853;BME280;3465;42.144;24.722;2023-06-10T02:17:46;147564.69;;;18.58;100.00
6853;BME280;3465;42.144;24.722;2023-06-10T02:20:11;147559.63;;;18.56;100.00
6853;BME280;3465;42.144;24.722;2023-06-10T02:22:37;147559.63;;;18.56;100.00
6853;BME280;3465;42.144;24.722;2023-06-10T02:25:03;147552.06;;;18.52;100.00
6853;BME280;3465;42.144;24.722;2023-06-10T02:27:29;147554.56;;;18.53;100.00
6853;BME280;3465;42.144;24.722;2023-06-10T02:29:56;147564.69;;;18.58;100.00
6853;BME280;3465;42.144;24.722;2023-06-10T02:32:21;147587.38;;;18.67;100.00
6853;BME280;3465;42.144;24.722;2023-06-10T02:34:47;147601.25;;;18.72;100.00
6853;BME280;3465;42.144;24.722;2023-06-10T02:37:14;147606.25;;;18.74;100.00
6853;BME280;3465;42.144;24.722;2023-06-10T02:39:39;147617.66;;;18.79;100.00
6853;BME280;3465;42.144;24.722;2023-06-10T02:42:05;147618.88;;;18.79;100.00
6853;BME280;3465;42.144;24.722;2023-06-10T02:44:31;147607.53;;;18.75;100.00
6853;BME280;3465;42.144;24.722;2023-06-10T02:46:57;147617.66;;;18.79;100.00
6853;BME280;3465;42.144;24.722;2023-06-10T02:49:22;147602.47;;;18.73;100.00
6853;BME280;3465;42.144;24.722;2023-06-10T02:51:48;147593.66;;;18.69;100.00
6853;BME280;3465;42.144;24.722;2023-06-10T02:54:13;147598.69;;;18.71;100.00
6853;BME280;3465;42.144;24.722;2023-06-10T02:56:38;147552.06;;;18.52;100.00
6853;BME280;3465;42.144;24.722;2023-06-10T02:59:07;147605.03;;;18.74;100.00
6853;BME280;3465;42.144;24.722;2023-06-10T03:01:33;147622.66;;;18.81;100.00
6853;BME280;3465;42.144;24.722;2023-06-10T03:04:02;147665.56;;;18.98;100.00
6853;BME280;3465;42.144;24.722;2023-06-10T03:06:27;147636.56;;;18.86;100.00
6853;BME280;3465;42.144;24.722;2023-06-10T03:08:53;147607.53;;;18.75;100.00
6853;BME280;3465;42.144;24.722;2023-06-10T03:11:19;147593.66;;;18.69;100.00
6853;BME280;3465;42.144;24.722;2023-06-10T03:13:44;147582.31;;;18.65;100.00
6853;BME280;3465;42.144;24.722;2023-06-10T03:16:10;147583.59;;;18.65;100.00
6853;BME280;3465;42.144;24.722;2023-06-10T03:18:37;147589.88;;;18.68;100.00
6853;BME280;3465;42.144;24.722;2023-06-10T03:21:03;147603.75;;;18.73;100.00
6853;BME280;3465;42.144;24.722;2023-06-10T03:23:28;147611.31;;;18.76;100.00
6853;BME280;3465;42.144;24.722;2023-06-10T03:25:54;147598.69;;;18.71;100.00
6853;BME280;3465;42.144;24.722;2023-06-10T03:28:20;147627.72;;;18.83;100.00
6853;BME280;3465;42.144;24.722;2023-06-10T03:30:46;147641.59;;;18.88;100.00
6853;BME280;3465;42.144;24.722;2023-06-10T03:33:12;147652.94;;;18.93;100.00
6853;BME280;3465;42.144;24.722;2023-06-10T03:35:37;147645.38;;;18.90;100.00
6853;BME280;3465;42.144;24.722;2023-06-10T03:38:03;147645.38;;;18.90;100.00
6853;BME280;3465;42.144;24.722;2023-06-10T03:40:28;147655.44;;;18.94;100.00
6853;BME280;3465;42.144;24.722;2023-06-10T03:42:55;147550.78;;;18.52;100.00
6853;BME280;3465;42.144;24.722;2023-06-10T03:45:21;147658.00;;;18.95;100.00
6853;BME280;3465;42.144;24.722;2023-06-10T03:47:46;147650.38;;;18.92;100.00
6853;BME280;3465;42.144;24.722;2023-06-10T03:50:13;147641.59;;;18.88;100.00
6853;BME280;3465;42.144;24.722;2023-06-10T03:52:38;147678.19;;;19.03;100.00
6853;BME280;3465;42.144;24.722;2023-06-10T03:55:05;147685.75;;;19.06;100.00
6853;BME280;3465;42.144;24.722;2023-06-10T03:57:31;147652.94;;;18.93;100.00
6853;BME280;3465;42.144;24.722;2023-06-10T03:59:56;147655.44;;;18.94;100.00
6853;BME280;3465;42.144;24.722;2023-06-10T04:02:22;147647.88;;;18.91;100.00
6853;BME280;3465;42.144;24.722;2023-06-10T04:04:48;147678.19;;;19.03;100.00
6853;BME280;3465;42.144;24.722;2023-06-10T04:07:13;147678.19;;;19.03;100.00
6853;BME280;3465;42.144;24.722;2023-06-10T04:09:39;147689.53;;;19.07;100.00
6853;BME280;3465;42.144;24.722;2023-06-10T04:12:05;147719.78;;;19.19;100.00
6853;BME280;3465;42.144;24.722;2023-06-10T04:14:35;147739.97;;;19.27;100.00
6853;BME280;3465;42.144;24.722;2023-06-10T04:17:05;147762.75;;;19.36;100.00
6853;BME280;3465;42.144;24.722;2023-06-10T04:19:33;147771.53;;;19.40;100.00
6853;BME280;3465;42.144;24.722;2023-06-10T04:22:01;147771.53;;;19.40;100.00
6853;BME280;3465;42.144;24.722;2023-06-10T04:24:27;147789.22;;;19.47;100.00
6853;BME280;3465;42.144;24.722;2023-06-10T04:26:53;147804.34;;;19.53;100.00
6853;BME280;3465;42.144;24.722;2023-06-10T04:29:18;147789.22;;;19.47;100.00
6853;BME280;3465;42.144;24.722;2023-06-10T04:31:44;147755.13;;;19.33;100.00
6853;BME280;3465;42.144;24.722;2023-06-10T04:34:12;147789.22;;;19.47;100.00
6853;BME280;3465;42.144;24.722;2023-06-10T04:36:37;147824.53;;;19.61;100.00
6853;BME280;3465;42.144;24.722;2023-06-10T04:39:03;147867.47;;;19.78;100.00
6853;BME280;3465;42.144;24.722;2023-06-10T04:41:30;147873.75;;;19.80;100.00
6853;BME280;3465;42.144;24.722;2023-06-10T04:43:56;147881.31;;;19.83;100.00
6853;BME280;3465;42.144;24.722;2023-06-10T04:46:21;147852.28;;;19.72;100.00
6853;BME280;3465;42.144;24.722;2023-06-10T04:48:47;147833.38;;;19.64;100.00
6853;BME280;3465;42.144;24.722;2023-06-10T04:51:12;147877.53;;;19.82;100.00
6853;BME280;3465;42.144;24.722;2023-06-10T04:53:38;147922.97;;;20.00;100.00
6853;BME280;3465;42.144;24.722;2023-06-10T04:56:04;147971.00;;;20.19;100.00
6853;BME280;3465;42.144;24.722;2023-06-10T04:58:29;148001.31;;;20.31;100.00
6853;BME280;3465;42.144;24.722;2023-06-10T05:00:55;148041.72;;;20.47;100.00
6853;BME280;3465;42.144;24.722;2023-06-10T05:03:20;148044.22;;;20.48;100.00
6853;BME280;3465;42.144;24.722;2023-06-10T05:05:46;148080.84;;;20.63;100.00
6853;BME280;3465;42.144;24.722;2023-06-10T05:08:11;148136.41;;;20.85;100.00
6853;BME280;3465;42.144;24.722;2023-06-10T05:10:36;148121.25;;;20.79;100.00
6853;BME280;3465;42.144;24.722;2023-06-10T05:13:02;148151.56;;;20.91;100.00
6853;BME280;3465;42.144;24.722;2023-06-10T05:15:28;148160.41;;;20.94;100.00
6853;BME280;3465;42.144;24.722;2023-06-10T05:17:56;148099.78;;;20.70;100.00
6853;BME280;3465;42.144;24.722;2023-06-10T05:20:23;148161.69;;;20.95;100.00
6853;BME280;3465;42.144;24.722;2023-06-10T05:22:49;148214.78;;;21.16;100.00
6853;BME280;3465;42.144;24.722;2023-06-10T05:25:14;148250.16;;;21.30;100.00
6853;BME280;3465;42.144;24.722;2023-06-10T05:27:40;148269.09;;;21.38;100.00
6853;BME280;3465;42.144;24.722;2023-06-10T05:30:07;148298.16;;;21.49;100.00
6853;BME280;3465;42.144;24.722;2023-06-10T05:32:33;148327.25;;;21.61;100.00
6853;BME280;3465;42.144;24.722;2023-06-10T05:34:58;148361.34;;;21.74;100.00
6853;BME280;3465;42.144;24.722;2023-06-10T05:37:25;148424.63;;;21.99;100.00
6853;BME280;3465;42.144;24.722;2023-06-10T05:39:50;148430.91;;;22.02;98.84
6853;BME280;3465;42.144;24.722;2023-06-10T05:42:16;148411.97;;;21.94;99.18
6853;BME280;3465;42.144;24.722;2023-06-10T05:44:41;148438.50;;;22.05;98.08
6853;BME280;3465;42.144;24.722;2023-06-10T05:47:07;148441.06;;;22.06;98.03
6853;BME280;3465;42.144;24.722;2023-06-10T05:49:33;148492.88;;;22.26;97.11
6853;BME280;3465;42.144;24.722;2023-06-10T05:51:58;148524.50;;;22.39;96.09
6853;BME280;3465;42.144;24.722;2023-06-10T05:54:25;148580.16;;;22.61;95.01
6853;BME280;3465;42.144;24.722;2023-06-10T05:56:50;148635.88;;;22.83;94.30
6853;BME280;3465;42.144;24.722;2023-06-10T05:59:16;148666.19;;;22.95;92.04
6853;BME280;3465;42.144;24.722;2023-06-10T06:01:41;148642.16;;;22.86;90.47
6853;BME280;3465;42.144;24.722;2023-06-10T06:04:06;148666.19;;;22.95;91.04
6853;BME280;3465;42.144;24.722;2023-06-10T06:06:32;148678.84;;;23.00;90.93
6853;BME280;3465;42.144;24.722;2023-06-10T06:08:57;148689.00;;;23.04;90.49
6853;BME280;3465;42.144;24.722;2023-06-10T06:11:23;148711.75;;;23.13;91.05
6853;BME280;3465;42.144;24.722;2023-06-10T06:13:48;148695.31;;;23.07;91.15
6853;BME280;3465;42.144;24.722;2023-06-10T06:16:13;148702.91;;;23.10;90.64
6853;BME280;3465;42.144;24.722;2023-06-10T06:18:39;148701.59;;;23.09;90.90
6853;BME280;3465;42.144;24.722;2023-06-10T06:21:04;148739.59;;;23.24;91.65
6853;BME280;3465;42.144;24.722;2023-06-10T06:23:30;148753.59;;;23.30;91.47
6853;BME280;3465;42.144;24.722;2023-06-10T06:25:55;148762.41;;;23.33;91.60
6853;BME280;3465;42.144;24.722;2023-06-10T06:28:21;148773.81;;;23.38;92.12
6853;BME280;3465;42.144;24.722;2023-06-10T06:30:47;148759.88;;;23.32;90.85
6853;BME280;3465;42.144;24.722;2023-06-10T06:33:13;148810.53;;;23.52;90.29
6853;BME280;3465;42.144;24.722;2023-06-10T06:35:38;148838.38;;;23.63;89.32
6853;BME280;3465;42.144;24.722;2023-06-10T06:38:05;148835.81;;;23.62;89.14
6853;BME280;3465;42.144;24.722;2023-06-10T06:40:31;148883.91;;;23.81;88.42
6853;BME280;3465;42.144;24.722;2023-06-10T06:42:56;148866.22;;;23.74;88.67
6853;BME280;3465;42.144;24.722;2023-06-10T06:45:21;148982.72;;;24.21;87.32
6853;BME280;3465;42.144;24.722;2023-06-10T06:47:47;149066.28;;;24.54;85.25
6853;BME280;3465;42.144;24.722;2023-06-10T06:50:12;149136.03;;;24.81;84.22
6853;BME280;3465;42.144;24.722;2023-06-10T06:52:38;149108.16;;;24.70;84.09
6853;BME280;3465;42.144;24.722;2023-06-10T06:55:04;149207.00;;;25.09;83.58
6853;BME280;3465;42.144;24.722;2023-06-10T06:57:29;149370.50;;;25.74;80.84
6853;BME280;3465;42.144;24.722;2023-06-10T06:59:55;149436.50;;;26.00;78.95
6853;BME280;3465;42.144;24.722;2023-06-10T07:02:20;149408.56;;;25.89;78.11
6853;BME280;3465;42.144;24.722;2023-06-10T07:04:46;149359.13;;;25.70;78.68
6853;BME280;3465;42.144;24.722;2023-06-10T07:07:14;149304.63;;;25.48;79.95
6853;BME280;3465;42.144;24.722;2023-06-10T07:09:39;149260.22;;;25.30;81.56
6853;BME280;3465;42.144;24.722;2023-06-10T07:12:05;149316.03;;;25.53;80.21
6853;BME280;3465;42.144;24.722;2023-06-10T07:14:30;149177.84;;;24.98;80.56
6853;BME280;3465;42.144;24.722;2023-06-10T07:16:56;149134.78;;;24.81;80.94
6853;BME280;3465;42.144;24.722;2023-06-10T07:19:21;149234.88;;;25.20;80.66
6853;BME280;3465;42.144;24.722;2023-06-10T07:21:47;149193.03;;;25.04;80.57
6853;BME280;3465;42.144;24.722;2023-06-10T07:24:12;149279.28;;;25.38;81.11
6853;BME280;3465;42.144;24.722;2023-06-10T07:26:38;149535.44;;;26.39;77.87
6853;BME280;3465;42.144;24.722;2023-06-10T07:29:04;149829.88;;;27.56;71.25
6853;BME280;3465;42.144;24.722;2023-06-10T07:31:30;149832.47;;;27.57;69.19
6853;BME280;3465;42.144;24.722;2023-06-10T07:33:55;150066.19;;;28.49;67.14
6853;BME280;3465;42.144;24.722;2023-06-10T07:36:21;150345.78;;;29.60;62.68
6853;BME280;3465;42.144;24.722;2023-06-10T07:38:46;150632.03;;;30.72;58.12
6853;BME280;3465;42.144;24.722;2023-06-10T07:41:11;150814.06;;;31.44;54.51
6853;BME280;3465;42.144;24.722;2023-06-10T07:43:37;150872.63;;;31.67;52.96
6853;BME280;3465;42.144;24.722;2023-06-10T07:46:03;150615.47;;;30.66;54.57
6853;BME280;3465;42.144;24.722;2023-06-10T07:48:30;150555.72;;;30.42;56.53
6853;BME280;3465;42.144;24.722;2023-06-10T07:50:56;150666.44;;;30.86;53.60
6853;BME280;3465;42.144;24.722;2023-06-10T07:53:21;150825.56;;;31.49;51.76
6853;BME280;3465;42.144;24.722;2023-06-10T07:55:46;150913.38;;;31.83;51.33
6853;BME280;3465;42.144;24.722;2023-06-10T07:58:12;150842.13;;;31.55;51.01
6853;BME280;3465;42.144;24.722;2023-06-10T08:00:37;150690.63;;;30.96;51.72
6853;BME280;3465;42.144;24.722;2023-06-10T08:03:02;150540.47;;;30.36;54.32
6853;BME280;3465;42.144;24.722;2023-06-10T08:05:28;150488.22;;;30.16;56.15
6853;BME280;3465;42.144;24.722;2023-06-10T08:07:55;150517.53;;;30.27;55.56
6853;BME280;3465;42.144;24.722;2023-06-10T08:10:21;150674.06;;;30.89;53.89
6853;BME280;3465;42.144;24.722;2023-06-10T08:12:46;150802.63;;;31.40;52.19
6853;BME280;3465;42.144;24.722;2023-06-10T08:15:11;150915.97;;;31.84;50.54
6853;BME280;3465;42.144;24.722;2023-06-10T08:17:37;151016.59;;;32.24;50.11
6853;BME280;3465;42.144;24.722;2023-06-10T08:20:03;151038.19;;;32.33;48.26
6853;BME280;3465;42.144;24.722;2023-06-10T08:22:28;151277.84;;;33.27;46.94
6853;BME280;3465;42.144;24.722;2023-06-10T08:24:54;151476.78;;;34.05;44.42
6853;BME280;3465;42.144;24.722;2023-06-10T08:27:21;151511.16;;;34.19;44.14
6853;BME280;3465;42.144;24.722;2023-06-10T08:29:46;151594.13;;;34.51;42.99
6853;BME280;3465;42.144;24.722;2023-06-10T08:32:12;151537.97;;;34.29;40.40
6853;BME280;3465;42.144;24.722;2023-06-10T08:34:37;151646.41;;;34.72;42.16
6853;BME280;3465;42.144;24.722;2023-06-10T08:37:03;151809.75;;;35.36;39.77
6853;BME280;3465;42.144;24.722;2023-06-10T08:39:29;151892.78;;;35.69;40.48
6853;BME280;3465;42.144;24.722;2023-06-10T08:44:35;151449.97;;;33.95;39.22
6853;BME280;3465;42.144;24.722;2023-06-10T08:47:06;151378.56;;;33.67;43.63
6853;BME280;3465;42.144;24.722;2023-06-10T08:49:37;151322.47;;;33.45;42.91
6853;BME280;3465;42.144;24.722;2023-06-10T08:52:04;151319.91;;;33.44;42.05
6853;BME280;3465;42.144;24.722;2023-06-10T08:54:33;151504.81;;;34.16;42.24
6853;BME280;3465;42.144;24.722;2023-06-10T08:57:04;151512.47;;;34.19;39.21
6853;BME280;3465;42.144;24.722;2023-06-10T08:59:31;151549.44;;;34.34;40.07
6853;BME280;3465;42.144;24.722;2023-06-10T09:01:57;151313.56;;;33.41;41.04
6853;BME280;3465;42.144;24.722;2023-06-10T09:04:24;151224.31;;;33.06;42.58
6853;BME280;3465;42.144;24.722;2023-06-10T09:06:49;151091.75;;;32.54;42.59
6853;BME280;3465;42.144;24.722;2023-06-10T09:09:16;151022.94;;;32.27;44.15
6853;BME280;3465;42.144;24.722;2023-06-10T09:11:43;150880.28;;;31.70;46.24
6853;BME280;3465;42.144;24.722;2023-06-10T09:14:09;150834.44;;;31.52;44.46
6853;BME280;3465;42.144;24.722;2023-06-10T09:16:34;150747.88;;;31.18;44.01
6853;BME280;3465;42.144;24.722;2023-06-10T09:19:01;150719.88;;;31.07;45.91
6853;BME280;3465;42.144;24.722;2023-06-10T09:21:27;150699.53;;;30.99;46.50
6853;BME280;3465;42.144;24.722;2023-06-10T09:23:53;150751.69;;;31.20;44.95
6853;BME280;3465;42.144;24.722;2023-06-10T09:26:19;150722.41;;;31.08;47.20
6853;BME280;3465;42.144;24.722;2023-06-10T09:28:47;150593.84;;;30.57;49.19
6853;BME280;3465;42.144;24.722;2023-06-10T09:31:13;150518.81;;;30.28;51.03
6853;BME280;3465;42.144;24.722;2023-06-10T09:33:39;150520.09;;;30.28;51.08
6853;BME280;3465;42.144;24.722;2023-06-10T09:36:05;150642.28;;;30.77;50.73
6853;BME280;3465;42.144;24.722;2023-06-10T09:38:32;150745.31;;;31.17;49.99
6853;BME280;3465;42.144;24.722;2023-06-10T09:40:58;150851.00;;;31.59;49.82
6853;BME280;3465;42.144;24.722;2023-06-10T09:43:41;150741.47;;;31.16;50.80
6853;BME280;3465;42.144;24.722;2023-06-10T09:46:17;150714.78;;;31.05;51.80
6853;BME280;3465;42.144;24.722;2023-06-10T09:48:44;150716.03;;;31.06;52.40
6853;BME280;3465;42.144;24.722;2023-06-10T09:51:11;150820.47;;;31.47;51.10
6853;BME280;3465;42.144;24.722;2023-06-10T09:53:37;150893.00;;;31.75;49.91
6853;BME280;3465;42.144;24.722;2023-06-10T09:56:02;150796.28;;;31.37;49.82
6853;BME280;3465;42.144;24.722;2023-06-10T09:58:38;150868.81;;;31.66;48.81
6853;BME280;3465;42.144;24.722;2023-06-10T10:01:08;150815.34;;;31.45;47.49
6853;BME280;3465;42.144;24.722;2023-06-10T10:03:34;150730.03;;;31.11;47.93
6853;BME280;3465;42.144;24.722;2023-06-10T10:06:08;150610.38;;;30.64;49.79
6853;BME280;3465;42.144;24.722;2023-06-10T10:08:34;150685.50;;;30.94;49.94
6853;BME280;3465;42.144;24.722;2023-06-10T10:11:00;150741.47;;;31.16;50.13
6853;BME280;3465;42.144;24.722;2023-06-10T10:13:28;151058.63;;;32.41;47.92
6853;BME280;3465;42.144;24.722;2023-06-10T10:15:56;151252.34;;;33.17;43.09
6853;BME280;3465;42.144;24.722;2023-06-10T10:18:29;151290.59;;;33.32;42.77
6853;BME280;3465;42.144;24.722;2023-06-10T10:20:57;151478.06;;;34.06;42.18
6853;BME280;3465;42.144;24.722;2023-06-10T10:23:31;151513.75;;;34.20;41.09
6853;BME280;3465;42.144;24.722;2023-06-10T10:26:00;151481.88;;;34.07;40.93
6853;BME280;3465;42.144;24.722;2023-06-10T10:28:37;151332.66;;;33.49;42.75
6853;BME280;3465;42.144;24.722;2023-06-10T10:31:08;151062.44;;;32.42;43.52
6853;BME280;3465;42.144;24.722;2023-06-10T10:33:51;151077.75;;;32.48;44.98
6853;BME280;3465;42.144;24.722;2023-06-10T10:36:19;151066.31;;;32.44;44.28
6853;BME280;3465;42.144;24.722;2023-06-10T10:38:45;150954.16;;;31.99;46.17
6853;BME280;3465;42.144;24.722;2023-06-10T10:41:13;150802.63;;;31.40;47.46
6853;BME280;3465;42.144;24.722;2023-06-10T10:43:39;150885.38;;;31.72;46.19
6853;BME280;3465;42.144;24.722;2023-06-10T10:46:11;150793.72;;;31.36;47.84
6853;BME280;3465;42.144;24.722;2023-06-10T10:48:38;150788.66;;;31.34;48.46
6853;BME280;3465;42.144;24.722;2023-06-10T10:51:04;150773.28;;;31.28;49.38
6853;BME280;3465;42.144;24.722;2023-06-10T10:53:29;150656.25;;;30.82;46.09
6853;BME280;3465;42.144;24.722;2023-06-10T10:58:25;150339.44;;;29.57;49.53
6853;BME280;3465;42.144;24.722;2023-06-10T11:00:51;150382.69;;;29.74;49.26
6853;BME280;3465;42.144;24.722;2023-06-10T11:03:17;150394.16;;;29.79;49.48
6853;BME280;3465;42.144;24.722;2023-06-10T11:05:47;150431.00;;;29.93;49.76
6853;BME280;3465;42.144;24.722;2023-06-10T11:08:14;150478.06;;;30.12;50.48
6853;BME280;3465;42.144;24.722;2023-06-10T11:10:42;150422.16;;;29.90;51.73
6853;BME280;3465;42.144;24.722;2023-06-10T11:13:20;150420.84;;;29.89;51.80
6853;BME280;3465;42.144;24.722;2023-06-10T11:15:50;150475.56;;;30.11;50.43
6853;BME280;3465;42.144;24.722;2023-06-10T11:18:26;150409.41;;;29.85;50.84
6853;BME280;3465;42.144;24.722;2023-06-10T11:21:03;150385.28;;;29.75;52.20
6853;BME280;3465;42.144;24.722;2023-06-10T11:28:40;150724.94;;;31.09;47.55
6853;BME280;3465;42.144;24.722;2023-06-10T11:31:05;150867.53;;;31.65;44.30
6853;BME280;3465;42.144;24.722;2023-06-10T11:33:31;151039.50;;;32.33;43.90
6853;BME280;3465;42.144;24.722;2023-06-10T11:35:57;150996.22;;;32.16;43.63
6853;BME280;3465;42.144;24.722;2023-06-10T11:38:23;150984.75;;;32.12;43.48
6853;BME280;3465;42.144;24.722;2023-06-10T11:40:49;150984.75;;;32.12;40.77
6853;BME280;3465;42.144;24.722;2023-06-10T11:43:16;150933.81;;;31.91;42.70
6853;BME280;3465;42.144;24.722;2023-06-10T11:45:42;150823.00;;;31.48;44.48
6853;BME280;3465;42.144;24.722;2023-06-10T11:48:09;150676.59;;;30.90;44.77
6853;BME280;3465;42.144;24.722;2023-06-10T11:50:36;150604.03;;;30.61;45.46
6853;BME280;3465;42.144;24.722;2023-06-10T11:53:02;150676.59;;;30.90;46.57
6853;BME280;3465;42.144;24.722;2023-06-10T11:55:41;150607.84;;;30.63;47.70
6853;BME280;3465;42.144;24.722;2023-06-10T11:58:13;150593.84;;;30.57;46.21
6853;BME280;3465;42.144;24.722;2023-06-10T12:00:55;150809.03;;;31.42;44.93
6853;BME280;3465;42.144;24.722;2023-06-10T12:03:24;150768.25;;;31.26;45.39
6853;BME280;3465;42.144;24.722;2023-06-10T12:06:08;150821.75;;;31.47;45.68
6853;BME280;3465;42.144;24.722;2023-06-10T12:08:41;150811.53;;;31.43;46.07
6853;BME280;3465;42.144;24.722;2023-06-10T12:11:07;150857.38;;;31.61;45.76
6853;BME280;3465;42.144;24.722;2023-06-10T12:13:33;150966.91;;;32.04;45.04
6853;BME280;3465;42.144;24.722;2023-06-10T12:16:08;151059.91;;;32.41;43.37
6853;BME280;3465;42.144;24.722;2023-06-10T12:18:34;151005.13;;;32.20;43.33
6853;BME280;3465;42.144;24.722;2023-06-10T12:21:00;150913.38;;;31.83;45.77
6853;BME280;3465;42.144;24.722;2023-06-10T12:23:25;150886.66;;;31.73;45.71
6853;BME280;3465;42.144;24.722;2023-06-10T12:25:55;150881.56;;;31.71;46.54
6853;BME280;3465;42.144;24.722;2023-06-10T12:28:25;150839.53;;;31.54;44.94
6853;BME280;3465;42.144;24.722;2023-06-10T12:30:58;150863.72;;;31.64;46.33
6853;BME280;3465;42.144;24.722;2023-06-10T12:33:30;150843.34;;;31.56;46.87
6853;BME280;3465;42.144;24.722;2023-06-10T12:35:56;150842.13;;;31.55;44.01
6853;BME280;3465;42.144;24.722;2023-06-10T12:38:25;150623.09;;;30.69;48.36
6853;BME280;3465;42.144;24.722;2023-06-10T12:40:57;150553.13;;;30.41;49.36
6853;BME280;3465;42.144;24.722;2023-06-10T12:43:26;150534.06;;;30.34;48.56
6853;BME280;3465;42.144;24.722;2023-06-10T12:45:51;150545.50;;;30.38;48.65
6853;BME280;3465;42.144;24.722;2023-06-10T12:48:18;150565.84;;;30.46;48.82
6853;BME280;3465;42.144;24.722;2023-06-10T12:50:46;150590.03;;;30.56;49.40
6853;BME280;3465;42.144;24.722;2023-06-10T12:53:12;150592.59;;;30.57;48.05
6853;BME280;3465;42.144;24.722;2023-06-10T12:55:38;150504.81;;;30.22;48.77
6853;BME280;3465;42.144;24.722;2023-06-10T12:58:04;150434.84;;;29.95;49.68
6853;BME280;3465;42.144;24.722;2023-06-10T13:00:29;150380.16;;;29.73;50.74
6853;BME280;3465;42.144;24.722;2023-06-10T13:03:01;150367.44;;;29.68;51.17